sensor_id;sensor_type;location;lat;lon;timestamp;pressure;altitude;pressure_sealevel;temperature;humidity
75219;BME280;63801;49.414;19.474;2022-11-10T00:00:18;93952.09;;;5.65;78.86
75219;BME280;63801;49.414;19.474;2022-11-10T00:02:18;93955.88;;;5.64;78.79
75219;BME280;63801;49.414;19.474;2022-11-10T00:04:18;93949.91;;;5.67;78.95
75219;BME280;63801;49.414;19.474;2022-11-10T00:06:19;93956.03;;;5.68;78.78
75219;BME280;63801;49.414;19.474;2022-11-10T00:08:19;93950.38;;;5.69;78.91
75219;BME280;63801;49.414;19.474;2022-11-10T00:10:19;93953.06;;;5.69;79.01
75219;BME280;63801;49.414;19.474;2022-11-10T00:12:21;93950.25;;;5.74;79.34
75219;BME280;63801;49.414;19.474;2022-11-10T00:14:21;93955.91;;;5.81;79.13
75219;BME280;63801;49.414;19.474;2022-11-10T00:16:40;93953.72;;;5.83;79.31
75219;BME280;63801;49.414;19.474;2022-11-10T00:18:59;93959.38;;;5.82;79.05
75219;BME280;63801;49.414;19.474;2022-11-10T00:21:04;93948.03;;;5.76;78.77
75219;BME280;63801;49.414;19.474;2022-11-10T00:23:04;93947.06;;;5.72;78.72
75219;BME280;63801;49.414;19.474;2022-11-10T00:25:06;93950.09;;;5.71;78.61
75219;BME280;63801;49.414;19.474;2022-11-10T00:27:06;93969.44;;;5.85;78.87
75219;BME280;63801;49.414;19.474;2022-11-10T00:29:07;93971.84;;;5.86;78.67
75219;BME280;63801;49.414;19.474;2022-11-10T00:31:08;93966.97;;;5.89;78.69
75219;BME280;63801;49.414;19.474;2022-11-10T00:33:08;93965.38;;;5.88;78.69
75219;BME280;63801;49.414;19.474;2022-11-10T00:35:09;93969.16;;;5.86;79.14
75219;BME280;63801;49.414;19.474;2022-11-10T00:37:09;93970.38;;;5.80;78.93
75219;BME280;63801;49.414;19.474;2022-11-10T00:39:10;93977.31;;;5.81;78.85
75219;BME280;63801;49.414;19.474;2022-11-10T00:41:10;93978.88;;;5.74;78.99
75219;BME280;63801;49.414;19.474;2022-11-10T00:43:12;93969.75;;;5.66;79.04
75219;BME280;63801;49.414;19.474;2022-11-10T00:45:12;93964.69;;;5.56;79.09
75219;BME280;63801;49.414;19.474;2022-11-10T00:47:12;93957.88;;;5.50;79.08
75219;BME280;63801;49.414;19.474;2022-11-10T00:49:13;93983.53;;;5.51;79.05
75219;BME280;63801;49.414;19.474;2022-11-10T00:51:20;93981.50;;;5.48;79.50
75219;BME280;63801;49.414;19.474;2022-11-10T00:53:21;93984.75;;;5.45;79.46
75219;BME280;63801;49.414;19.474;2022-11-10T00:55:21;93982.56;;;5.47;79.60
75219;BME280;63801;49.414;19.474;2022-11-10T00:57:22;93973.47;;;5.48;79.71
75219;BME280;63801;49.414;19.474;2022-11-10T00:59:22;93976.13;;;5.48;79.48
75219;BME280;63801;49.414;19.474;2022-11-10T01:01:24;93982.75;;;5.51;79.74
75219;BME280;63801;49.414;19.474;2022-11-10T01:03:24;93980.06;;;5.51;79.69
75219;BME280;63801;49.414;19.474;2022-11-10T01:05:24;93964.50;;;5.44;79.89
75219;BME280;63801;49.414;19.474;2022-11-10T01:07:25;93975.03;;;5.49;79.76
75219;BME280;63801;49.414;19.474;2022-11-10T01:09:25;93979.94;;;5.56;79.74
75219;BME280;63801;49.414;19.474;2022-11-10T01:11:27;93983.38;;;5.56;79.82
75219;BME280;63801;49.414;19.474;2022-11-10T01:13:27;93981.50;;;5.57;79.70
75219;BME280;63801;49.414;19.474;2022-11-10T01:15:27;93984.97;;;5.57;79.93
75219;BME280;63801;49.414;19.474;2022-11-10T01:17:29;93983.38;;;5.48;79.88
75219;BME280;63801;49.414;19.474;2022-11-10T01:19:29;93995.31;;;5.50;79.85
75219;BME280;63801;49.414;19.474;2022-11-10T01:21:30;93994.84;;;5.48;80.06
75219;BME280;63801;49.414;19.474;2022-11-10T01:23:30;93997.03;;;5.46;79.95
75219;BME280;63801;49.414;19.474;2022-11-10T01:25:30;93993.56;;;5.46;80.29
75219;BME280;63801;49.414;19.474;2022-11-10T01:27:31;93993.91;;;5.44;80.47
75219;BME280;63801;49.414;19.474;2022-11-10T01:29:31;93997.03;;;5.46;80.49
75219;BME280;63801;49.414;19.474;2022-11-10T01:31:31;93998.13;;;5.45;81.06
75219;BME280;63801;49.414;19.474;2022-11-10T01:33:32;93994.66;;;5.44;80.61
75219;BME280;63801;49.414;19.474;2022-11-10T01:35:33;93990.72;;;5.42;80.23
75219;BME280;63801;49.414;19.474;2022-11-10T01:37:33;93986.81;;;5.39;80.12
75219;BME280;63801;49.414;19.474;2022-11-10T01:39:34;93994.03;;;5.39;80.12
75219;BME280;63801;49.414;19.474;2022-11-10T01:41:34;93998.59;;;5.38;79.95
75219;BME280;63801;49.414;19.474;2022-11-10T01:43:36;94005.03;;;5.37;80.08
75219;BME280;63801;49.414;19.474;2022-11-10T01:45:56;94002.34;;;5.37;80.46
75219;BME280;63801;49.414;19.474;2022-11-10T01:48:01;93999.03;;;5.32;80.28
75219;BME280;63801;49.414;19.474;2022-11-10T01:50:02;94001.44;;;5.42;80.47
75219;BME280;63801;49.414;19.474;2022-11-10T01:52:06;94011.69;;;5.49;80.31
75219;BME280;63801;49.414;19.474;2022-11-10T01:54:12;94012.63;;;5.53;80.33
75219;BME280;63801;49.414;19.474;2022-11-10T01:56:14;94003.34;;;5.50;80.64
75219;BME280;63801;49.414;19.474;2022-11-10T01:58:17;94011.38;;;5.59;80.73
75219;BME280;63801;49.414;19.474;2022-11-10T02:00:21;94009.19;;;5.61;80.59
75219;BME280;63801;49.414;19.474;2022-11-10T02:02:27;94010.00;;;5.61;80.73
75219;BME280;63801;49.414;19.474;2022-11-10T02:04:28;94001.97;;;5.61;80.57
75219;BME280;63801;49.414;19.474;2022-11-10T02:06:32;94015.34;;;5.61;80.77
75219;BME280;63801;49.414;19.474;2022-11-10T02:08:34;94004.44;;;5.58;80.64
75219;BME280;63801;49.414;19.474;2022-11-10T02:10:35;94009.63;;;5.54;80.71
75219;BME280;63801;49.414;19.474;2022-11-10T02:12:36;93997.66;;;5.43;81.10
75219;BME280;63801;49.414;19.474;2022-11-10T02:14:37;94010.28;;;5.51;80.74
75219;BME280;63801;49.414;19.474;2022-11-10T02:16:38;94010.28;;;5.51;80.68
75219;BME280;63801;49.414;19.474;2022-11-10T02:18:39;94019.88;;;5.52;80.73
75219;BME280;63801;49.414;19.474;2022-11-10T02:20:43;94018.00;;;5.53;81.13
75219;BME280;63801;49.414;19.474;2022-11-10T02:22:44;94025.09;;;5.57;80.85
75219;BME280;63801;49.414;19.474;2022-11-10T02:24:44;94022.06;;;5.59;80.75
75219;BME280;63801;49.414;19.474;2022-11-10T02:26:49;94034.53;;;5.63;80.86
75219;BME280;63801;49.414;19.474;2022-11-10T02:28:51;94037.69;;;5.65;80.63
75219;BME280;63801;49.414;19.474;2022-11-10T02:30:52;94039.72;;;5.68;80.88
75219;BME280;63801;49.414;19.474;2022-11-10T02:32:53;94048.72;;;5.72;80.92
75219;BME280;63801;49.414;19.474;2022-11-10T02:34:53;94048.56;;;5.77;80.97
75219;BME280;63801;49.414;19.474;2022-11-10T02:36:53;94055.38;;;5.83;81.22
75219;BME280;63801;49.414;19.474;2022-11-10T02:38:54;94051.56;;;5.84;81.46
75219;BME280;63801;49.414;19.474;2022-11-10T02:40:54;94052.41;;;5.94;81.49
75219;BME280;63801;49.414;19.474;2022-11-10T02:42:54;94033.69;;;5.94;81.64
75219;BME280;63801;49.414;19.474;2022-11-10T02:44:55;94051.19;;;6.08;81.51
75219;BME280;63801;49.414;19.474;2022-11-10T02:46:56;94054.03;;;6.12;81.74
75219;BME280;63801;49.414;19.474;2022-11-10T02:48:56;94046.16;;;6.15;81.46
75219;BME280;63801;49.414;19.474;2022-11-10T02:50:57;94023.78;;;6.03;81.34
75219;BME280;63801;49.414;19.474;2022-11-10T02:52:57;94048.22;;;6.18;81.65
75219;BME280;63801;49.414;19.474;2022-11-10T02:54:58;94055.16;;;6.19;81.67
75219;BME280;63801;49.414;19.474;2022-11-10T02:56:58;94050.75;;;6.15;81.48
75219;BME280;63801;49.414;19.474;2022-11-10T02:59:01;94058.59;;;6.20;81.37
75219;BME280;63801;49.414;19.474;2022-11-10T03:01:04;94051.69;;;6.19;81.69
75219;BME280;63801;49.414;19.474;2022-11-10T03:03:04;94044.44;;;6.19;81.63
75219;BME280;63801;49.414;19.474;2022-11-10T03:05:05;94047.88;;;6.20;81.66
75219;BME280;63801;49.414;19.474;2022-11-10T03:07:05;94038.47;;;6.14;81.41
75219;BME280;63801;49.414;19.474;2022-11-10T03:09:05;94052.16;;;6.21;81.39
75219;BME280;63801;49.414;19.474;2022-11-10T03:11:06;94048.38;;;6.22;81.44
75219;BME280;63801;49.414;19.474;2022-11-10T03:13:06;94048.38;;;6.22;81.52
75219;BME280;63801;49.414;19.474;2022-11-10T03:15:07;94049.16;;;6.22;81.39
75219;BME280;63801;49.414;19.474;2022-11-10T03:17:07;94052.63;;;6.23;81.28
75219;BME280;63801;49.414;19.474;2022-11-10T03:19:08;94056.72;;;6.20;81.47
75219;BME280;63801;49.414;19.474;2022-11-10T03:21:08;94062.84;;;6.21;81.50
75219;BME280;63801;49.414;19.474;2022-11-10T03:23:08;94067.91;;;6.22;81.36
75219;BME280;63801;49.414;19.474;2022-11-10T03:25:09;94069.16;;;6.25;81.25
75219;BME280;63801;49.414;19.474;2022-11-10T03:27:10;94070.75;;;6.26;81.52
75219;BME280;63801;49.414;19.474;2022-11-10T03:29:10;94075.16;;;6.30;81.34
75219;BME280;63801;49.414;19.474;2022-11-10T03:31:10;94069.97;;;6.34;81.64
75219;BME280;63801;49.414;19.474;2022-11-10T03:33:11;94084.28;;;6.38;81.66
75219;BME280;63801;49.414;19.474;2022-11-10T03:35:11;94069.34;;;6.37;81.56
75219;BME280;63801;49.414;19.474;2022-11-10T03:37:11;94066.03;;;6.40;81.61
75219;BME280;63801;49.414;19.474;2022-11-10T03:39:12;94071.84;;;6.42;81.36
75219;BME280;63801;49.414;19.474;2022-11-10T03:41:12;94085.72;;;6.44;81.49
75219;BME280;63801;49.414;19.474;2022-11-10T03:43:12;94062.88;;;6.38;81.63
75219;BME280;63801;49.414;19.474;2022-11-10T03:45:13;94073.28;;;6.48;81.30
75219;BME280;63801;49.414;19.474;2022-11-10T03:47:14;94077.06;;;6.47;81.39
75219;BME280;63801;49.414;19.474;2022-11-10T03:49:15;94074.38;;;6.47;81.34
75219;BME280;63801;49.414;19.474;2022-11-10T03:51:15;94075.97;;;6.48;81.34
75219;BME280;63801;49.414;19.474;2022-11-10T03:53:15;94080.53;;;6.48;81.32
75219;BME280;63801;49.414;19.474;2022-11-10T03:55:17;94082.75;;;6.46;81.38
75219;BME280;63801;49.414;19.474;2022-11-10T03:57:17;94087.63;;;6.44;81.48
75219;BME280;63801;49.414;19.474;2022-11-10T03:59:18;94086.19;;;6.38;81.20
75219;BME280;63801;49.414;19.474;2022-11-10T04:01:18;94091.72;;;6.41;81.26
75219;BME280;63801;49.414;19.474;2022-11-10T04:03:18;94079.09;;;6.33;81.15
75219;BME280;63801;49.414;19.474;2022-11-10T04:05:19;94099.91;;;6.45;81.21
75219;BME280;63801;49.414;19.474;2022-11-10T04:07:38;94103.38;;;6.45;81.30
75219;BME280;63801;49.414;19.474;2022-11-10T04:09:57;94097.06;;;6.41;81.38
75219;BME280;63801;49.414;19.474;2022-11-10T04:11:57;94108.41;;;6.47;81.37
75219;BME280;63801;49.414;19.474;2022-11-10T04:14:16;94109.19;;;6.47;81.33
75219;BME280;63801;49.414;19.474;2022-11-10T04:16:35;94108.09;;;6.48;81.23
75219;BME280;63801;49.414;19.474;2022-11-10T04:18:35;94093.91;;;6.39;81.16
75219;BME280;63801;49.414;19.474;2022-11-10T04:20:35;94108.09;;;6.48;81.09
75219;BME280;63801;49.414;19.474;2022-11-10T04:22:36;94110.47;;;6.50;81.03
75219;BME280;63801;49.414;19.474;2022-11-10T04:24:55;94105.91;;;6.50;81.03
75219;BME280;63801;49.414;19.474;2022-11-10T04:26:55;94116.28;;;6.52;80.96
75219;BME280;63801;49.414;19.474;2022-11-10T04:29:00;94115.50;;;6.51;80.81
75219;BME280;63801;49.414;19.474;2022-11-10T04:31:01;94108.88;;;6.49;81.07
75219;BME280;63801;49.414;19.474;2022-11-10T04:33:02;94125.28;;;6.56;81.13
75219;BME280;63801;49.414;19.474;2022-11-10T04:35:02;94125.91;;;6.53;81.00
75219;BME280;63801;49.414;19.474;2022-11-10T04:37:02;94130.63;;;6.56;81.13
75219;BME280;63801;49.414;19.474;2022-11-10T04:39:04;94126.06;;;6.56;81.10
75219;BME280;63801;49.414;19.474;2022-11-10T04:41:05;94136.63;;;6.53;81.29
75219;BME280;63801;49.414;19.474;2022-11-10T04:43:05;94132.06;;;6.53;81.23
75219;BME280;63801;49.414;19.474;2022-11-10T04:45:06;94133.63;;;6.54;81.10
75219;BME280;63801;49.414;19.474;2022-11-10T04:47:06;94146.09;;;6.50;81.34
75219;BME280;63801;49.414;19.474;2022-11-10T04:49:07;94134.56;;;6.50;81.42
75219;BME280;63801;49.414;19.474;2022-11-10T04:51:08;94147.19;;;6.49;81.28
75219;BME280;63801;49.414;19.474;2022-11-10T04:53:09;94150.94;;;6.48;81.36
75219;BME280;63801;49.414;19.474;2022-11-10T04:55:09;94158.97;;;6.48;81.34
75219;BME280;63801;49.414;19.474;2022-11-10T04:57:09;94138.34;;;6.40;81.31
75219;BME280;63801;49.414;19.474;2022-11-10T04:59:09;94153.63;;;6.48;81.38
75219;BME280;63801;49.414;19.474;2022-11-10T05:01:15;94141.66;;;6.37;81.49
75219;BME280;63801;49.414;19.474;2022-11-10T05:03:15;94156.16;;;6.45;81.52
75219;BME280;63801;49.414;19.474;2022-11-10T05:05:16;94150.00;;;6.44;81.42
75219;BME280;63801;49.414;19.474;2022-11-10T05:07:16;94150.44;;;6.38;81.25
75219;BME280;63801;49.414;19.474;2022-11-10T05:09:16;94153.59;;;6.40;81.48
75219;BME280;63801;49.414;19.474;2022-11-10T05:11:17;94148.75;;;6.42;81.36
75219;BME280;63801;49.414;19.474;2022-11-10T05:13:17;94142.91;;;6.40;81.44
75219;BME280;63801;49.414;19.474;2022-11-10T05:15:17;94139.44;;;6.39;81.59
75219;BME280;63801;49.414;19.474;2022-11-10T05:17:17;94135.00;;;6.35;81.43
75219;BME280;63801;49.414;19.474;2022-11-10T05:19:18;94139.72;;;6.38;81.73
75219;BME280;63801;49.414;19.474;2022-11-10T05:21:19;94141.78;;;6.32;81.86
75219;BME280;63801;49.414;19.474;2022-11-10T05:23:20;94129.19;;;6.24;81.62
75219;BME280;63801;49.414;19.474;2022-11-10T05:25:41;94117.34;;;6.33;81.69
75219;BME280;63801;49.414;19.474;2022-11-10T05:27:42;94133.25;;;6.30;81.73
75219;BME280;63801;49.414;19.474;2022-11-10T05:29:42;94121.88;;;6.16;81.95
75219;BME280;63801;49.414;19.474;2022-11-10T05:31:42;94137.22;;;6.24;81.65
75219;BME280;63801;49.414;19.474;2022-11-10T05:33:42;94143.03;;;6.26;81.55
75219;BME280;63801;49.414;19.474;2022-11-10T05:35:43;94148.06;;;6.19;81.60
75219;BME280;63801;49.414;19.474;2022-11-10T05:37:43;94151.34;;;6.24;81.66
75219;BME280;63801;49.414;19.474;2022-11-10T05:39:43;94161.28;;;6.24;81.59
75219;BME280;63801;49.414;19.474;2022-11-10T05:41:44;94154.34;;;6.23;81.71
75219;BME280;63801;49.414;19.474;2022-11-10T05:43:44;94163.97;;;6.24;81.85
75219;BME280;63801;49.414;19.474;2022-11-10T05:45:44;94167.41;;;6.24;81.79
75219;BME280;63801;49.414;19.474;2022-11-10T05:47:45;94172.31;;;6.22;82.00
75219;BME280;63801;49.414;19.474;2022-11-10T05:49:45;94169.94;;;6.29;81.82
75219;BME280;63801;49.414;19.474;2022-11-10T05:51:45;94156.91;;;6.28;82.02
75219;BME280;63801;49.414;19.474;2022-11-10T05:53:45;94175.16;;;6.35;81.85
75219;BME280;63801;49.414;19.474;2022-11-10T05:55:46;94160.19;;;6.25;81.62
75219;BME280;63801;49.414;19.474;2022-11-10T05:57:48;94174.88;;;6.36;81.81
75219;BME280;63801;49.414;19.474;2022-11-10T05:59:48;94172.97;;;6.37;81.95
75219;BME280;63801;49.414;19.474;2022-11-10T06:01:49;94167.78;;;6.31;81.90
75219;BME280;63801;49.414;19.474;2022-11-10T06:03:50;94178.34;;;6.45;81.90
75219;BME280;63801;49.414;19.474;2022-11-10T06:05:50;94176.78;;;6.44;81.96
75219;BME280;63801;49.414;19.474;2022-11-10T06:07:50;94195.25;;;6.54;81.87
75219;BME280;63801;49.414;19.474;2022-11-10T06:09:51;94202.16;;;6.64;82.03
75219;BME280;63801;49.414;19.474;2022-11-10T06:11:51;94210.06;;;6.69;81.85
75219;BME280;63801;49.414;19.474;2022-11-10T06:13:51;94215.28;;;6.74;81.40
75219;BME280;63801;49.414;19.474;2022-11-10T06:15:52;94215.13;;;6.79;81.61
75219;BME280;63801;49.414;19.474;2022-11-10T06:17:52;94219.25;;;6.76;81.43
75219;BME280;63801;49.414;19.474;2022-11-10T06:19:53;94225.72;;;6.84;81.48
75219;BME280;63801;49.414;19.474;2022-11-10T06:21:53;94227.75;;;6.87;81.40
75219;BME280;63801;49.414;19.474;2022-11-10T06:23:53;94230.59;;;6.91;81.41
75219;BME280;63801;49.414;19.474;2022-11-10T06:25:54;94229.03;;;6.90;81.13
75219;BME280;63801;49.414;19.474;2022-11-10T06:27:54;94222.75;;;6.94;81.35
75219;BME280;63801;49.414;19.474;2022-11-10T06:29:55;94230.44;;;6.96;81.53
75219;BME280;63801;49.414;19.474;2022-11-10T06:31:56;94236.75;;;7.00;81.53
75219;BME280;63801;49.414;19.474;2022-11-10T06:33:56;94238.81;;;7.03;81.55
75219;BME280;63801;49.414;19.474;2022-11-10T06:35:56;94245.59;;;7.09;81.54
75219;BME280;63801;49.414;19.474;2022-11-10T06:38:05;94245.59;;;7.09;81.01
75219;BME280;63801;49.414;19.474;2022-11-10T06:40:07;94250.66;;;7.02;80.72
75219;BME280;63801;49.414;19.474;2022-11-10T06:42:08;94254.09;;;6.94;80.75
75219;BME280;63801;49.414;19.474;2022-11-10T06:44:08;94254.56;;;6.87;80.70
75219;BME280;63801;49.414;19.474;2022-11-10T06:46:11;94259.13;;;6.87;80.85
75219;BME280;63801;49.414;19.474;2022-11-10T06:48:12;94258.03;;;6.88;81.11
75219;BME280;63801;49.414;19.474;2022-11-10T06:50:13;94256.44;;;6.87;81.29
75219;BME280;63801;49.414;19.474;2022-11-10T06:52:13;94258.03;;;6.96;81.34
75219;BME280;63801;49.414;19.474;2022-11-10T06:54:13;94261.81;;;7.04;81.17
75219;BME280;63801;49.414;19.474;2022-11-10T06:56:14;94264.84;;;7.11;81.27
75219;BME280;63801;49.414;19.474;2022-11-10T06:58:14;94271.94;;;7.15;81.30
75219;BME280;63801;49.414;19.474;2022-11-10T07:00:16;94283.78;;;7.23;81.16
75219;BME280;63801;49.414;19.474;2022-11-10T07:02:16;94286.00;;;7.30;81.29
75219;BME280;63801;49.414;19.474;2022-11-10T07:04:16;94278.75;;;7.30;81.17
75219;BME280;63801;49.414;19.474;2022-11-10T07:06:17;94297.69;;;7.42;81.03
75219;BME280;63801;49.414;19.474;2022-11-10T07:08:17;94299.09;;;7.48;81.07
75219;BME280;63801;49.414;19.474;2022-11-10T07:10:18;94291.84;;;7.49;80.93
75219;BME280;63801;49.414;19.474;2022-11-10T07:12:18;94296.13;;;7.58;80.92
75219;BME280;63801;49.414;19.474;2022-11-10T07:14:18;94298.63;;;7.63;80.92
75219;BME280;63801;49.414;19.474;2022-11-10T07:16:19;94291.84;;;7.57;80.86
75219;BME280;63801;49.414;19.474;2022-11-10T07:18:19;94306.53;;;7.68;80.75
75219;BME280;63801;49.414;19.474;2022-11-10T07:20:19;94294.06;;;7.64;80.73
75219;BME280;63801;49.414;19.474;2022-11-10T07:22:20;94300.06;;;7.61;80.84
75219;BME280;63801;49.414;19.474;2022-11-10T07:24:20;94311.25;;;7.72;80.72
75219;BME280;63801;49.414;19.474;2022-11-10T07:26:21;94313.94;;;7.72;80.38
75219;BME280;63801;49.414;19.474;2022-11-10T07:28:21;94328.00;;;7.68;80.54
75219;BME280;63801;49.414;19.474;2022-11-10T07:30:21;94313.31;;;7.66;80.33
75219;BME280;63801;49.414;19.474;2022-11-10T07:32:22;94320.75;;;7.60;80.40
75219;BME280;63801;49.414;19.474;2022-11-10T07:34:22;94316.19;;;7.61;80.44
75219;BME280;63801;49.414;19.474;2022-11-10T07:36:22;94329.25;;;7.62;80.41
75219;BME280;63801;49.414;19.474;2022-11-10T07:38:23;94331.47;;;7.60;80.59
75219;BME280;63801;49.414;19.474;2022-11-10T07:40:23;94331.00;;;7.58;80.55
75219;BME280;63801;49.414;19.474;2022-11-10T07:42:24;94336.19;;;7.55;80.59
75219;BME280;63801;49.414;19.474;2022-11-10T07:44:24;94339.53;;;7.52;80.42
75219;BME280;63801;49.414;19.474;2022-11-10T07:46:25;94338.72;;;7.51;80.21
75219;BME280;63801;49.414;19.474;2022-11-10T07:48:25;94339.97;;;7.54;80.58
75219;BME280;63801;49.414;19.474;2022-11-10T07:50:26;94339.19;;;7.53;80.81
75219;BME280;63801;49.414;19.474;2022-11-10T07:52:27;94330.53;;;7.48;80.82
75219;BME280;63801;49.414;19.474;2022-11-10T07:54:27;94345.84;;;7.56;80.75
75219;BME280;63801;49.414;19.474;2022-11-10T07:56:27;94350.88;;;7.57;80.70
75219;BME280;63801;49.414;19.474;2022-11-10T07:58:29;94355.13;;;7.58;80.66
75219;BME280;63801;49.414;19.474;2022-11-10T08:00:30;94348.03;;;7.54;80.74
75219;BME280;63801;49.414;19.474;2022-11-10T08:02:30;94353.56;;;7.57;80.68
75219;BME280;63801;49.414;19.474;2022-11-10T08:04:31;94365.06;;;7.58;80.92
75219;BME280;63801;49.414;19.474;2022-11-10T08:06:31;94360.19;;;7.60;80.87
75219;BME280;63801;49.414;19.474;2022-11-10T08:08:31;94361.00;;;7.60;80.81
75219;BME280;63801;49.414;19.474;2022-11-10T08:10:32;94373.78;;;7.63;80.82
75219;BME280;63801;49.414;19.474;2022-11-10T08:12:34;94357.81;;;7.58;80.68
75219;BME280;63801;49.414;19.474;2022-11-10T08:14:34;94376.59;;;7.67;80.81
75219;BME280;63801;49.414;19.474;2022-11-10T08:16:34;94377.91;;;7.70;80.80
75219;BME280;63801;49.414;19.474;2022-11-10T08:18:35;94373.28;;;7.61;80.93
75219;BME280;63801;49.414;19.474;2022-11-10T08:20:35;94366.16;;;7.57;80.91
75219;BME280;63801;49.414;19.474;2022-11-10T08:22:35;94377.09;;;7.69;80.80
75219;BME280;63801;49.414;19.474;2022-11-10T08:24:36;94376.94;;;7.65;80.67
75219;BME280;63801;49.414;19.474;2022-11-10T08:26:36;94383.25;;;7.70;80.89
75219;BME280;63801;49.414;19.474;2022-11-10T08:28:36;94380.25;;;7.71;80.47
75219;BME280;63801;49.414;19.474;2022-11-10T08:30:38;94392.25;;;7.74;80.52
75219;BME280;63801;49.414;19.474;2022-11-10T08:32:39;94374.88;;;7.62;80.74
75219;BME280;63801;49.414;19.474;2022-11-10T08:34:39;94387.84;;;7.78;80.77
75219;BME280;63801;49.414;19.474;2022-11-10T08:36:39;94390.19;;;7.79;80.77
75219;BME280;63801;49.414;19.474;2022-11-10T08:38:40;94388.00;;;7.81;80.60
75219;BME280;63801;49.414;19.474;2022-11-10T08:40:41;94377.41;;;7.76;80.68
75219;BME280;63801;49.414;19.474;2022-11-10T08:42:41;94398.44;;;7.83;80.71
75219;BME280;63801;49.414;19.474;2022-11-10T08:44:42;94406.63;;;7.86;80.57
75219;BME280;63801;49.414;19.474;2022-11-10T08:46:42;94396.84;;;7.82;80.79
75219;BME280;63801;49.414;19.474;2022-11-10T08:48:43;94405.19;;;7.89;80.77
75219;BME280;63801;49.414;19.474;2022-11-10T08:50:44;94394.63;;;7.84;80.75
75219;BME280;63801;49.414;19.474;2022-11-10T08:52:44;94403.47;;;7.93;80.61
75219;BME280;63801;49.414;19.474;2022-11-10T08:54:45;94412.00;;;7.95;80.68
75219;BME280;63801;49.414;19.474;2022-11-10T08:56:45;94414.06;;;7.98;80.67
75219;BME280;63801;49.414;19.474;2022-11-10T08:58:45;94407.28;;;8.00;80.65
75219;BME280;63801;49.414;19.474;2022-11-10T09:00:46;94419.13;;;8.08;80.81
75219;BME280;63801;49.414;19.474;2022-11-10T09:02:46;94396.22;;;8.02;80.87
75219;BME280;63801;49.414;19.474;2022-11-10T09:04:46;94424.47;;;8.25;80.66
75219;BME280;63801;49.414;19.474;2022-11-10T09:06:47;94429.88;;;8.34;80.50
75219;BME280;63801;49.414;19.474;2022-11-10T09:08:47;94433.03;;;8.44;80.58
75219;BME280;63801;49.414;19.474;2022-11-10T09:10:47;94436.81;;;8.52;80.47
75219;BME280;63801;49.414;19.474;2022-11-10T09:12:50;94437.75;;;8.56;80.30
75219;BME280;63801;49.414;19.474;2022-11-10T09:14:51;94440.75;;;8.63;80.16
75219;BME280;63801;49.414;19.474;2022-11-10T09:16:51;94444.72;;;8.66;80.01
75219;BME280;63801;49.414;19.474;2022-11-10T09:18:51;94453.06;;;8.73;79.99
75219;BME280;63801;49.414;19.474;2022-11-10T09:20:52;94450.88;;;8.75;79.89
75219;BME280;63801;49.414;19.474;2022-11-10T09:22:52;94445.66;;;8.70;79.63
75219;BME280;63801;49.414;19.474;2022-11-10T09:24:53;94460.50;;;8.76;79.53
75219;BME280;63801;49.414;19.474;2022-11-10T09:26:53;94453.38;;;8.80;79.50
75219;BME280;63801;49.414;19.474;2022-11-10T09:28:53;94458.91;;;8.83;79.39
75219;BME280;63801;49.414;19.474;2022-11-10T09:30:54;94468.06;;;8.82;79.37
75219;BME280;63801;49.414;19.474;2022-11-10T09:32:58;94464.44;;;8.87;79.43
75219;BME280;63801;49.414;19.474;2022-11-10T09:34:59;94461.88;;;8.90;79.41
75219;BME280;63801;49.414;19.474;2022-11-10T09:37:00;94463.00;;;8.98;79.55
75219;BME280;63801;49.414;19.474;2022-11-10T09:39:00;94458.25;;;8.95;79.39
75219;BME280;63801;49.414;19.474;2022-11-10T09:41:03;94462.66;;;8.99;79.42
75219;BME280;63801;49.414;19.474;2022-11-10T09:43:11;94463.78;;;9.07;79.57
75219;BME280;63801;49.414;19.474;2022-11-10T09:47:22;94472.41;;;9.21;79.11
75219;BME280;63801;49.414;19.474;2022-11-10T09:49:32;94466.59;;;9.11;78.52
75219;BME280;63801;49.414;19.474;2022-11-10T09:51:38;94477.19;;;9.16;78.56
75219;BME280;63801;49.414;19.474;2022-11-10T09:53:43;94477.34;;;9.11;78.46
75219;BME280;63801;49.414;19.474;2022-11-10T09:55:49;94476.88;;;9.09;78.30
75219;BME280;63801;49.414;19.474;2022-11-10T09:57:53;94483.69;;;9.06;78.45
75219;BME280;63801;49.414;19.474;2022-11-10T09:59:55;94461.59;;;8.92;78.22
75219;BME280;63801;49.414;19.474;2022-11-10T10:06:57;94484.50;;;9.07;78.37
75219;BME280;63801;49.414;19.474;2022-11-10T10:11:28;94489.19;;;9.18;78.35
75219;BME280;63801;49.414;19.474;2022-11-10T10:16:09;94476.75;;;9.43;78.58
75219;BME280;63801;49.414;19.474;2022-11-10T10:18:44;94484.16;;;9.55;78.15
75219;BME280;63801;49.414;19.474;2022-11-10T10:23:01;94494.56;;;9.65;77.88
75219;BME280;63801;49.414;19.474;2022-11-10T10:25:13;94495.16;;;9.70;77.66
75219;BME280;63801;49.414;19.474;2022-11-10T10:27:22;94499.44;;;9.71;77.25
75219;BME280;63801;49.414;19.474;2022-11-10T10:29:38;94498.16;;;9.77;77.22
75219;BME280;63801;49.414;19.474;2022-11-10T10:31:43;94500.81;;;9.86;77.39
75219;BME280;63801;49.414;19.474;2022-11-10T10:33:46;94475.44;;;9.87;77.40
75219;BME280;63801;49.414;19.474;2022-11-10T10:35:48;94497.72;;;9.96;76.98
75219;BME280;63801;49.414;19.474;2022-11-10T10:37:53;94493.66;;;9.90;76.65
75219;BME280;63801;49.414;19.474;2022-11-10T10:39:54;94497.16;;;9.90;76.73
75219;BME280;63801;49.414;19.474;2022-11-10T10:41:55;94498.38;;;9.93;76.92
75219;BME280;63801;49.414;19.474;2022-11-10T10:43:59;94488.91;;;9.87;76.74
75219;BME280;63801;49.414;19.474;2022-11-10T10:46:11;94494.72;;;9.98;76.90
75219;BME280;63801;49.414;19.474;2022-11-10T10:48:24;94490.72;;;10.04;76.98
75219;BME280;63801;49.414;19.474;2022-11-10T10:50:34;94494.94;;;10.13;77.29
75219;BME280;63801;49.414;19.474;2022-11-10T10:52:40;94489.19;;;10.23;76.95
75219;BME280;63801;49.414;19.474;2022-11-10T10:54:41;94492.63;;;10.32;77.06
75219;BME280;63801;49.414;19.474;2022-11-10T10:56:42;94495.25;;;10.41;76.88
75219;BME280;63801;49.414;19.474;2022-11-10T10:58:54;94502.16;;;10.51;76.82